sensor_id;sensor_type;location;lat;lon;timestamp;P1;durP1;ratioP1;P2;durP2;ratioP2
58756;SDS011;44527;47.460;19.016;2024-02-28T00:02:56;26.92;;;10.95;;
58756;SDS011;44527;47.460;19.016;2024-02-28T00:05:58;34.45;;;12.30;;
58756;SDS011;44527;47.460;19.016;2024-02-28T00:09:01;22.75;;;11.82;;
58756;SDS011;44527;47.460;19.016;2024-02-28T00:12:03;23.98;;;11.65;;
58756;SDS011;44527;47.460;19.016;2024-02-28T00:15:06;36.53;;;13.23;;
58756;SDS011;44527;47.460;19.016;2024-02-28T00:18:13;27.42;;;12.25;;
58756;SDS011;44527;47.460;19.016;2024-02-28T00:21:15;26.60;;;12.60;;
58756;SDS011;44527;47.460;19.016;2024-02-28T00:24:18;23.30;;;11.93;;
58756;SDS011;44527;47.460;19.016;2024-02-28T00:27:20;26.90;;;12.13;;
58756;SDS011;44527;47.460;19.016;2024-02-28T00:30:23;32.15;;;12.40;;
58756;SDS011;44527;47.460;19.016;2024-02-28T00:33:25;25.45;;;12.37;;
58756;SDS011;44527;47.460;19.016;2024-02-28T00:36:28;24.70;;;11.90;;
58756;SDS011;44527;47.460;19.016;2024-02-28T00:39:40;23.38;;;12.65;;
58756;SDS011;44527;47.460;19.016;2024-02-28T00:42:43;22.58;;;11.98;;
58756;SDS011;44527;47.460;19.016;2024-02-28T00:45:45;34.00;;;13.90;;
58756;SDS011;44527;47.460;19.016;2024-02-28T00:48:48;33.92;;;13.65;;
58756;SDS011;44527;47.460;19.016;2024-02-28T00:51:50;25.25;;;12.75;;
58756;SDS011;44527;47.460;19.016;2024-02-28T00:54:53;33.42;;;13.02;;
58756;SDS011;44527;47.460;19.016;2024-02-28T00:57:55;30.05;;;12.98;;
58756;SDS011;44527;47.460;19.016;2024-02-28T01:00:58;29.12;;;13.40;;
58756;SDS011;44527;47.460;19.016;2024-02-28T01:04:01;24.83;;;12.65;;
58756;SDS011;44527;47.460;19.016;2024-02-28T01:07:03;29.73;;;12.10;;
58756;SDS011;44527;47.460;19.016;2024-02-28T01:10:06;32.40;;;12.23;;
58756;SDS011;44527;47.460;19.016;2024-02-28T01:13:11;23.48;;;12.25;;
58756;SDS011;44527;47.460;19.016;2024-02-28T01:16:13;27.58;;;12.40;;
58756;SDS011;44527;47.460;19.016;2024-02-28T01:19:16;22.90;;;12.37;;
58756;SDS011;44527;47.460;19.016;2024-02-28T01:22:18;37.00;;;13.60;;
58756;SDS011;44527;47.460;19.016;2024-02-28T01:25:21;25.20;;;12.73;;
58756;SDS011;44527;47.460;19.016;2024-02-28T01:28:23;25.35;;;13.40;;
58756;SDS011;44527;47.460;19.016;2024-02-28T01:31:25;28.15;;;13.23;;
58756;SDS011;44527;47.460;19.016;2024-02-28T01:34:28;25.77;;;14.30;;
58756;SDS011;44527;47.460;19.016;2024-02-28T01:37:30;26.75;;;13.68;;
58756;SDS011;44527;47.460;19.016;2024-02-28T01:40:32;28.67;;;13.40;;
58756;SDS011;44527;47.460;19.016;2024-02-28T01:43:35;29.63;;;13.90;;
58756;SDS011;44527;47.460;19.016;2024-02-28T01:46:37;27.65;;;13.73;;
58756;SDS011;44527;47.460;19.016;2024-02-28T01:49:40;30.67;;;13.70;;
58756;SDS011;44527;47.460;19.016;2024-02-28T01:52:43;35.58;;;14.00;;
58756;SDS011;44527;47.460;19.016;2024-02-28T01:55:46;26.62;;;12.98;;
58756;SDS011;44527;47.460;19.016;2024-02-28T01:58:49;29.20;;;14.35;;
58756;SDS011;44527;47.460;19.016;2024-02-28T02:01:52;30.33;;;14.25;;
58756;SDS011;44527;47.460;19.016;2024-02-28T02:04:56;37.60;;;14.68;;
58756;SDS011;44527;47.460;19.016;2024-02-28T02:08:00;40.17;;;14.50;;
58756;SDS011;44527;47.460;19.016;2024-02-28T02:11:04;28.50;;;14.43;;
58756;SDS011;44527;47.460;19.016;2024-02-28T02:14:07;26.70;;;14.00;;
58756;SDS011;44527;47.460;19.016;2024-02-28T02:17:10;25.88;;;13.45;;
58756;SDS011;44527;47.460;19.016;2024-02-28T02:20:13;24.45;;;13.38;;
58756;SDS011;44527;47.460;19.016;2024-02-28T02:23:17;21.83;;;12.52;;
58756;SDS011;44527;47.460;19.016;2024-02-28T02:26:19;26.62;;;12.70;;
58756;SDS011;44527;47.460;19.016;2024-02-28T02:29:21;20.77;;;12.18;;
58756;SDS011;44527;47.460;19.016;2024-02-28T02:32:24;25.45;;;12.73;;
58756;SDS011;44527;47.460;19.016;2024-02-28T02:35:26;26.20;;;12.35;;
58756;SDS011;44527;47.460;19.016;2024-02-28T02:38:28;24.58;;;12.60;;
58756;SDS011;44527;47.460;19.016;2024-02-28T02:41:31;29.27;;;12.50;;
58756;SDS011;44527;47.460;19.016;2024-02-28T02:44:33;29.23;;;13.07;;
58756;SDS011;44527;47.460;19.016;2024-02-28T02:47:37;28.33;;;13.35;;
58756;SDS011;44527;47.460;19.016;2024-02-28T02:50:39;27.75;;;12.68;;
58756;SDS011;44527;47.460;19.016;2024-02-28T02:53:41;27.65;;;13.13;;
58756;SDS011;44527;47.460;19.016;2024-02-28T02:56:44;35.88;;;13.48;;
58756;SDS011;44527;47.460;19.016;2024-02-28T02:59:46;29.73;;;13.10;;
58756;SDS011;44527;47.460;19.016;2024-02-28T03:02:49;34.95;;;13.88;;
58756;SDS011;44527;47.460;19.016;2024-02-28T03:05:51;32.55;;;13.48;;
58756;SDS011;44527;47.460;19.016;2024-02-28T03:08:53;27.10;;;13.50;;
58756;SDS011;44527;47.460;19.016;2024-02-28T03:11:56;27.02;;;13.20;;
58756;SDS011;44527;47.460;19.016;2024-02-28T03:14:58;27.02;;;13.30;;
58756;SDS011;44527;47.460;19.016;2024-02-28T03:18:01;23.48;;;13.02;;
58756;SDS011;44527;47.460;19.016;2024-02-28T03:21:04;38.45;;;13.48;;
58756;SDS011;44527;47.460;19.016;2024-02-28T03:24:06;25.05;;;13.07;;
58756;SDS011;44527;47.460;19.016;2024-02-28T03:27:09;28.95;;;14.35;;
58756;SDS011;44527;47.460;19.016;2024-02-28T03:30:11;27.52;;;13.98;;
58756;SDS011;44527;47.460;19.016;2024-02-28T03:33:14;29.58;;;13.98;;
58756;SDS011;44527;47.460;19.016;2024-02-28T03:36:16;26.77;;;12.85;;
58756;SDS011;44527;47.460;19.016;2024-02-28T03:39:19;29.30;;;14.38;;
58756;SDS011;44527;47.460;19.016;2024-02-28T03:42:22;34.08;;;14.40;;
58756;SDS011;44527;47.460;19.016;2024-02-28T03:45:27;31.33;;;14.60;;
58756;SDS011;44527;47.460;19.016;2024-02-28T03:48:31;33.92;;;14.32;;
58756;SDS011;44527;47.460;19.016;2024-02-28T03:51:39;30.80;;;13.90;;
58756;SDS011;44527;47.460;19.016;2024-02-28T03:54:43;30.52;;;13.30;;
58756;SDS011;44527;47.460;19.016;2024-02-28T03:57:49;32.10;;;14.38;;
58756;SDS011;44527;47.460;19.016;2024-02-28T04:00:54;29.87;;;13.45;;
58756;SDS011;44527;47.460;19.016;2024-02-28T04:03:57;25.52;;;13.27;;
58756;SDS011;44527;47.460;19.016;2024-02-28T04:07:00;22.48;;;12.65;;
58756;SDS011;44527;47.460;19.016;2024-02-28T04:10:03;31.35;;;13.52;;
58756;SDS011;44527;47.460;19.016;2024-02-28T04:13:07;26.90;;;12.37;;
58756;SDS011;44527;47.460;19.016;2024-02-28T04:16:09;27.37;;;13.00;;
58756;SDS011;44527;47.460;19.016;2024-02-28T04:19:12;23.48;;;13.25;;
58756;SDS011;44527;47.460;19.016;2024-02-28T04:22:15;32.00;;;13.75;;
58756;SDS011;44527;47.460;19.016;2024-02-28T04:25:17;33.72;;;13.98;;
58756;SDS011;44527;47.460;19.016;2024-02-28T04:28:20;31.08;;;14.05;;
58756;SDS011;44527;47.460;19.016;2024-02-28T04:31:22;33.53;;;14.45;;
58756;SDS011;44527;47.460;19.016;2024-02-28T04:34:24;32.50;;;14.60;;
58756;SDS011;44527;47.460;19.016;2024-02-28T04:37:27;26.17;;;14.38;;
58756;SDS011;44527;47.460;19.016;2024-02-28T04:40:29;29.55;;;14.77;;
58756;SDS011;44527;47.460;19.016;2024-02-28T04:43:31;26.58;;;13.90;;
58756;SDS011;44527;47.460;19.016;2024-02-28T04:46:34;27.05;;;12.82;;
58756;SDS011;44527;47.460;19.016;2024-02-28T04:49:37;32.97;;;14.25;;
58756;SDS011;44527;47.460;19.016;2024-02-28T04:52:41;27.75;;;13.62;;
58756;SDS011;44527;47.460;19.016;2024-02-28T04:55:43;31.27;;;13.05;;
58756;SDS011;44527;47.460;19.016;2024-02-28T04:58:45;34.78;;;13.57;;
58756;SDS011;44527;47.460;19.016;2024-02-28T05:01:48;37.58;;;14.38;;
58756;SDS011;44527;47.460;19.016;2024-02-28T05:04:50;26.23;;;12.98;;
58756;SDS011;44527;47.460;19.016;2024-02-28T05:07:52;27.15;;;13.40;;
58756;SDS011;44527;47.460;19.016;2024-02-28T05:10:55;25.10;;;11.98;;
58756;SDS011;44527;47.460;19.016;2024-02-28T05:13:57;27.17;;;13.00;;
58756;SDS011;44527;47.460;19.016;2024-02-28T05:17:00;29.45;;;12.70;;
58756;SDS011;44527;47.460;19.016;2024-02-28T05:20:02;29.50;;;12.80;;
58756;SDS011;44527;47.460;19.016;2024-02-28T05:23:05;23.42;;;11.68;;
58756;SDS011;44527;47.460;19.016;2024-02-28T05:26:07;26.23;;;12.45;;
58756;SDS011;44527;47.460;19.016;2024-02-28T05:29:10;28.20;;;12.88;;
58756;SDS011;44527;47.460;19.016;2024-02-28T05:32:12;20.35;;;10.85;;
58756;SDS011;44527;47.460;19.016;2024-02-28T05:35:14;23.33;;;10.23;;
58756;SDS011;44527;47.460;19.016;2024-02-28T05:38:17;34.47;;;11.25;;
58756;SDS011;44527;47.460;19.016;2024-02-28T05:41:19;27.87;;;10.88;;
58756;SDS011;44527;47.460;19.016;2024-02-28T05:44:22;23.92;;;10.02;;
58756;SDS011;44527;47.460;19.016;2024-02-28T05:47:26;25.33;;;10.35;;
58756;SDS011;44527;47.460;19.016;2024-02-28T05:50:28;28.48;;;12.27;;
58756;SDS011;44527;47.460;19.016;2024-02-28T05:53:32;22.98;;;11.30;;
58756;SDS011;44527;47.460;19.016;2024-02-28T05:56:37;25.02;;;11.38;;
58756;SDS011;44527;47.460;19.016;2024-02-28T05:59:40;29.42;;;11.30;;
58756;SDS011;44527;47.460;19.016;2024-02-28T06:02:42;21.27;;;11.02;;
58756;SDS011;44527;47.460;19.016;2024-02-28T06:05:45;30.27;;;11.85;;
58756;SDS011;44527;47.460;19.016;2024-02-28T06:08:47;32.78;;;11.38;;
58756;SDS011;44527;47.460;19.016;2024-02-28T06:11:49;31.30;;;12.43;;
58756;SDS011;44527;47.460;19.016;2024-02-28T06:14:52;24.75;;;10.32;;
58756;SDS011;44527;47.460;19.016;2024-02-28T06:17:58;20.42;;;9.50;;
58756;SDS011;44527;47.460;19.016;2024-02-28T06:21:02;27.35;;;10.63;;
58756;SDS011;44527;47.460;19.016;2024-02-28T06:24:05;20.85;;;9.88;;
58756;SDS011;44527;47.460;19.016;2024-02-28T06:27:07;20.23;;;9.60;;
58756;SDS011;44527;47.460;19.016;2024-02-28T06:30:15;32.20;;;11.43;;
58756;SDS011;44527;47.460;19.016;2024-02-28T06:33:19;29.30;;;12.07;;
58756;SDS011;44527;47.460;19.016;2024-02-28T06:36:22;25.05;;;12.10;;
58756;SDS011;44527;47.460;19.016;2024-02-28T06:39:24;26.15;;;11.35;;
58756;SDS011;44527;47.460;19.016;2024-02-28T06:42:27;27.55;;;10.52;;
58756;SDS011;44527;47.460;19.016;2024-02-28T06:45:29;21.02;;;10.25;;
58756;SDS011;44527;47.460;19.016;2024-02-28T06:48:32;25.75;;;10.68;;
58756;SDS011;44527;47.460;19.016;2024-02-28T06:51:35;21.60;;;10.48;;
58756;SDS011;44527;47.460;19.016;2024-02-28T06:54:39;25.02;;;10.90;;
58756;SDS011;44527;47.460;19.016;2024-02-28T06:57:42;28.27;;;11.02;;
58756;SDS011;44527;47.460;19.016;2024-02-28T07:00:45;32.28;;;12.57;;
58756;SDS011;44527;47.460;19.016;2024-02-28T07:03:51;27.48;;;11.73;;
58756;SDS011;44527;47.460;19.016;2024-02-28T07:06:54;28.90;;;12.37;;
58756;SDS011;44527;47.460;19.016;2024-02-28T07:09:56;36.42;;;11.23;;
58756;SDS011;44527;47.460;19.016;2024-02-28T07:12:59;24.20;;;11.65;;
58756;SDS011;44527;47.460;19.016;2024-02-28T07:16:02;24.60;;;11.05;;
58756;SDS011;44527;47.460;19.016;2024-02-28T07:19:04;42.72;;;12.32;;
58756;SDS011;44527;47.460;19.016;2024-02-28T07:22:07;31.37;;;13.10;;
58756;SDS011;44527;47.460;19.016;2024-02-28T07:25:09;25.75;;;13.20;;
58756;SDS011;44527;47.460;19.016;2024-02-28T07:28:12;27.10;;;13.38;;
58756;SDS011;44527;47.460;19.016;2024-02-28T07:31:20;30.15;;;12.35;;
58756;SDS011;44527;47.460;19.016;2024-02-28T07:34:24;26.98;;;12.13;;
58756;SDS011;44527;47.460;19.016;2024-02-28T07:37:26;29.45;;;12.63;;
58756;SDS011;44527;47.460;19.016;2024-02-28T07:40:28;24.33;;;11.68;;
58756;SDS011;44527;47.460;19.016;2024-02-28T07:43:31;35.47;;;12.37;;
58756;SDS011;44527;47.460;19.016;2024-02-28T07:46:40;31.70;;;12.45;;
58756;SDS011;44527;47.460;19.016;2024-02-28T07:49:43;26.90;;;13.20;;
58756;SDS011;44527;47.460;19.016;2024-02-28T07:52:46;29.10;;;12.88;;
58756;SDS011;44527;47.460;19.016;2024-02-28T07:55:48;40.25;;;12.88;;
58756;SDS011;44527;47.460;19.016;2024-02-28T07:58:51;28.30;;;13.10;;
58756;SDS011;44527;47.460;19.016;2024-02-28T08:01:56;28.00;;;12.70;;
58756;SDS011;44527;47.460;19.016;2024-02-28T08:04:59;30.08;;;12.18;;
58756;SDS011;44527;47.460;19.016;2024-02-28T08:08:01;30.42;;;12.73;;
58756;SDS011;44527;47.460;19.016;2024-02-28T08:11:04;35.70;;;12.52;;
58756;SDS011;44527;47.460;19.016;2024-02-28T08:14:06;31.42;;;12.15;;
58756;SDS011;44527;47.460;19.016;2024-02-28T08:17:09;28.27;;;11.82;;
58756;SDS011;44527;47.460;19.016;2024-02-28T08:20:11;23.50;;;11.85;;
58756;SDS011;44527;47.460;19.016;2024-02-28T08:23:14;25.98;;;11.30;;
58756;SDS011;44527;47.460;19.016;2024-02-28T08:26:16;22.42;;;11.30;;
58756;SDS011;44527;47.460;19.016;2024-02-28T08:29:19;21.98;;;11.27;;
58756;SDS011;44527;47.460;19.016;2024-02-28T08:32:21;25.20;;;12.80;;
58756;SDS011;44527;47.460;19.016;2024-02-28T08:35:23;28.62;;;12.27;;
58756;SDS011;44527;47.460;19.016;2024-02-28T08:38:27;28.38;;;12.32;;
58756;SDS011;44527;47.460;19.016;2024-02-28T08:41:30;24.20;;;11.23;;
58756;SDS011;44527;47.460;19.016;2024-02-28T08:44:34;38.42;;;11.90;;
58756;SDS011;44527;47.460;19.016;2024-02-28T08:47:37;28.33;;;12.43;;
58756;SDS011;44527;47.460;19.016;2024-02-28T08:50:39;32.75;;;13.00;;
58756;SDS011;44527;47.460;19.016;2024-02-28T08:53:42;33.80;;;13.18;;
58756;SDS011;44527;47.460;19.016;2024-02-28T08:56:44;25.92;;;11.43;;
58756;SDS011;44527;47.460;19.016;2024-02-28T08:59:58;24.08;;;11.32;;
58756;SDS011;44527;47.460;19.016;2024-02-28T09:03:00;25.73;;;12.52;;
58756;SDS011;44527;47.460;19.016;2024-02-28T09:06:04;26.17;;;12.32;;
58756;SDS011;44527;47.460;19.016;2024-02-28T09:09:06;28.83;;;12.43;;
58756;SDS011;44527;47.460;19.016;2024-02-28T09:12:09;30.23;;;12.20;;
58756;SDS011;44527;47.460;19.016;2024-02-28T09:15:11;31.65;;;12.27;;
58756;SDS011;44527;47.460;19.016;2024-02-28T09:18:13;29.08;;;11.63;;
58756;SDS011;44527;47.460;19.016;2024-02-28T09:21:16;23.52;;;11.95;;
58756;SDS011;44527;47.460;19.016;2024-02-28T09:24:19;27.92;;;11.90;;
58756;SDS011;44527;47.460;19.016;2024-02-28T09:27:21;28.25;;;11.55;;
58756;SDS011;44527;47.460;19.016;2024-02-28T09:30:24;38.47;;;13.38;;
58756;SDS011;44527;47.460;19.016;2024-02-28T09:33:33;27.35;;;11.73;;
58756;SDS011;44527;47.460;19.016;2024-02-28T09:36:42;31.92;;;13.27;;
58756;SDS011;44527;47.460;19.016;2024-02-28T09:39:51;24.70;;;11.30;;
58756;SDS011;44527;47.460;19.016;2024-02-28T09:43:04;30.60;;;12.07;;
58756;SDS011;44527;47.460;19.016;2024-02-28T09:46:08;24.37;;;11.02;;
58756;SDS011;44527;47.460;19.016;2024-02-28T09:49:14;29.30;;;12.27;;
58756;SDS011;44527;47.460;19.016;2024-02-28T09:52:17;28.00;;;12.43;;
58756;SDS011;44527;47.460;19.016;2024-02-28T09:55:20;24.92;;;11.75;;
58756;SDS011;44527;47.460;19.016;2024-02-28T09:58:23;25.30;;;10.77;;
58756;SDS011;44527;47.460;19.016;2024-02-28T10:01:27;36.03;;;11.65;;
58756;SDS011;44527;47.460;19.016;2024-02-28T10:04:31;39.72;;;12.50;;
58756;SDS011;44527;47.460;19.016;2024-02-28T10:07:35;25.70;;;11.98;;
58756;SDS011;44527;47.460;19.016;2024-02-28T10:10:38;21.05;;;11.15;;
58756;SDS011;44527;47.460;19.016;2024-02-28T10:13:40;24.77;;;11.07;;
58756;SDS011;44527;47.460;19.016;2024-02-28T10:16:43;21.60;;;11.07;;
58756;SDS011;44527;47.460;19.016;2024-02-28T10:19:45;28.62;;;12.15;;
58756;SDS011;44527;47.460;19.016;2024-02-28T10:22:51;30.33;;;10.63;;
58756;SDS011;44527;47.460;19.016;2024-02-28T10:25:55;20.75;;;10.57;;
58756;SDS011;44527;47.460;19.016;2024-02-28T10:29:03;21.58;;;10.15;;
58756;SDS011;44527;47.460;19.016;2024-02-28T10:32:06;25.08;;;10.80;;
58756;SDS011;44527;47.460;19.016;2024-02-28T10:35:08;22.98;;;10.10;;
58756;SDS011;44527;47.460;19.016;2024-02-28T10:38:14;27.95;;;11.25;;
58756;SDS011;44527;47.460;19.016;2024-02-28T10:41:16;21.87;;;10.35;;
58756;SDS011;44527;47.460;19.016;2024-02-28T10:44:20;28.12;;;10.45;;
58756;SDS011;44527;47.460;19.016;2024-02-28T10:47:41;22.50;;;10.50;;
58756;SDS011;44527;47.460;19.016;2024-02-28T10:50:44;23.58;;;10.15;;
58756;SDS011;44527;47.460;19.016;2024-02-28T10:53:48;27.60;;;10.93;;
58756;SDS011;44527;47.460;19.016;2024-02-28T10:56:51;23.95;;;10.45;;
58756;SDS011;44527;47.460;19.016;2024-02-28T10:59:55;23.77;;;11.30;;
58756;SDS011;44527;47.460;19.016;2024-02-28T11:02:59;22.20;;;11.15;;
58756;SDS011;44527;47.460;19.016;2024-02-28T11:06:15;26.27;;;11.10;;
58756;SDS011;44527;47.460;19.016;2024-02-28T11:09:20;25.60;;;10.80;;
58756;SDS011;44527;47.460;19.016;2024-02-28T11:12:28;25.45;;;11.00;;
58756;SDS011;44527;47.460;19.016;2024-02-28T11:15:31;27.50;;;11.45;;
58756;SDS011;44527;47.460;19.016;2024-02-28T11:18:34;23.42;;;10.93;;
58756;SDS011;44527;47.460;19.016;2024-02-28T11:21:36;22.37;;;10.20;;
58756;SDS011;44527;47.460;19.016;2024-02-28T11:24:44;33.13;;;11.88;;
58756;SDS011;44527;47.460;19.016;2024-02-28T11:27:47;29.27;;;11.93;;
58756;SDS011;44527;47.460;19.016;2024-02-28T11:30:51;31.10;;;11.73;;
58756;SDS011;44527;47.460;19.016;2024-02-28T11:33:53;29.75;;;10.70;;
58756;SDS011;44527;47.460;19.016;2024-02-28T11:36:56;27.45;;;10.73;;
58756;SDS011;44527;47.460;19.016;2024-02-28T11:40:01;22.10;;;10.88;;
58756;SDS011;44527;47.460;19.016;2024-02-28T11:43:04;18.92;;;10.05;;
58756;SDS011;44527;47.460;19.016;2024-02-28T11:46:08;23.85;;;12.52;;
58756;SDS011;44527;47.460;19.016;2024-02-28T11:49:14;28.45;;;10.93;;
58756;SDS011;44527;47.460;19.016;2024-02-28T11:52:17;31.05;;;11.68;;
58756;SDS011;44527;47.460;19.016;2024-02-28T11:55:19;18.17;;;9.50;;
58756;SDS011;44527;47.460;19.016;2024-02-28T11:58:22;28.50;;;10.38;;
58756;SDS011;44527;47.460;19.016;2024-02-28T12:01:34;23.52;;;10.77;;
58756;SDS011;44527;47.460;19.016;2024-02-28T12:04:41;19.70;;;10.15;;
58756;SDS011;44527;47.460;19.016;2024-02-28T12:07:45;24.48;;;10.25;;
58756;SDS011;44527;47.460;19.016;2024-02-28T12:10:49;24.95;;;10.40;;
58756;SDS011;44527;47.460;19.016;2024-02-28T12:13:55;37.33;;;10.98;;
58756;SDS011;44527;47.460;19.016;2024-02-28T12:16:58;24.17;;;11.10;;
58756;SDS011;44527;47.460;19.016;2024-02-28T12:20:00;22.62;;;10.20;;
58756;SDS011;44527;47.460;19.016;2024-02-28T12:23:14;26.17;;;10.30;;
58756;SDS011;44527;47.460;19.016;2024-02-28T12:26:16;23.17;;;10.77;;
58756;SDS011;44527;47.460;19.016;2024-02-28T12:29:21;28.67;;;10.90;;
58756;SDS011;44527;47.460;19.016;2024-02-28T12:32:23;36.20;;;10.35;;
58756;SDS011;44527;47.460;19.016;2024-02-28T12:35:26;22.80;;;9.68;;
58756;SDS011;44527;47.460;19.016;2024-02-28T12:38:28;23.20;;;10.30;;
58756;SDS011;44527;47.460;19.016;2024-02-28T12:41:31;25.10;;;10.40;;
58756;SDS011;44527;47.460;19.016;2024-02-28T12:44:34;18.25;;;9.45;;
58756;SDS011;44527;47.460;19.016;2024-02-28T12:47:36;22.48;;;10.55;;
58756;SDS011;44527;47.460;19.016;2024-02-28T12:50:39;29.50;;;11.23;;
58756;SDS011;44527;47.460;19.016;2024-02-28T12:53:41;25.10;;;11.00;;
58756;SDS011;44527;47.460;19.016;2024-02-28T12:56:44;25.17;;;10.20;;
58756;SDS011;44527;47.460;19.016;2024-02-28T12:59:46;26.27;;;10.18;;
58756;SDS011;44527;47.460;19.016;2024-02-28T13:02:52;25.10;;;10.55;;
58756;SDS011;44527;47.460;19.016;2024-02-28T13:05:57;26.08;;;11.60;;
58756;SDS011;44527;47.460;19.016;2024-02-28T13:09:00;24.08;;;10.77;;
58756;SDS011;44527;47.460;19.016;2024-02-28T13:12:02;26.08;;;10.32;;
58756;SDS011;44527;47.460;19.016;2024-02-28T13:15:06;21.45;;;10.30;;
58756;SDS011;44527;47.460;19.016;2024-02-28T13:18:10;24.80;;;10.55;;
58756;SDS011;44527;47.460;19.016;2024-02-28T13:21:14;25.58;;;9.88;;
58756;SDS011;44527;47.460;19.016;2024-02-28T13:24:17;24.75;;;10.57;;
58756;SDS011;44527;47.460;19.016;2024-02-28T13:27:19;20.83;;;10.02;;
58756;SDS011;44527;47.460;19.016;2024-02-28T13:30:22;31.42;;;11.00;;
58756;SDS011;44527;47.460;19.016;2024-02-28T13:33:25;24.65;;;10.30;;
58756;SDS011;44527;47.460;19.016;2024-02-28T13:36:28;20.65;;;10.35;;
58756;SDS011;44527;47.460;19.016;2024-02-28T13:39:30;20.17;;;9.23;;
58756;SDS011;44527;47.460;19.016;2024-02-28T13:42:33;17.20;;;7.87;;
58756;SDS011;44527;47.460;19.016;2024-02-28T13:45:37;17.80;;;7.78;;
58756;SDS011;44527;47.460;19.016;2024-02-28T13:48:43;18.17;;;8.07;;
58756;SDS011;44527;47.460;19.016;2024-02-28T13:51:46;23.52;;;9.20;;
58756;SDS011;44527;47.460;19.016;2024-02-28T13:54:51;22.17;;;8.65;;
58756;SDS011;44527;47.460;19.016;2024-02-28T13:57:54;20.17;;;8.77;;
58756;SDS011;44527;47.460;19.016;2024-02-28T14:00:57;17.80;;;8.90;;
58756;SDS011;44527;47.460;19.016;2024-02-28T14:03:59;18.70;;;7.62;;
58756;SDS011;44527;47.460;19.016;2024-02-28T14:07:02;15.65;;;8.05;;
58756;SDS011;44527;47.460;19.016;2024-02-28T14:10:05;17.83;;;7.45;;
58756;SDS011;44527;47.460;19.016;2024-02-28T14:13:08;18.00;;;7.95;;
58756;SDS011;44527;47.460;19.016;2024-02-28T14:16:13;17.12;;;8.88;;
58756;SDS011;44527;47.460;19.016;2024-02-28T14:19:16;16.23;;;7.78;;
58756;SDS011;44527;47.460;19.016;2024-02-28T14:22:18;23.10;;;8.63;;
58756;SDS011;44527;47.460;19.016;2024-02-28T14:25:21;17.30;;;9.05;;
58756;SDS011;44527;47.460;19.016;2024-02-28T14:28:24;18.55;;;8.57;;
58756;SDS011;44527;47.460;19.016;2024-02-28T14:31:26;17.87;;;8.25;;
58756;SDS011;44527;47.460;19.016;2024-02-28T14:34:29;20.02;;;8.45;;
58756;SDS011;44527;47.460;19.016;2024-02-28T14:37:37;17.80;;;7.75;;
58756;SDS011;44527;47.460;19.016;2024-02-28T14:40:42;21.35;;;8.90;;
58756;SDS011;44527;47.460;19.016;2024-02-28T14:43:44;23.27;;;8.38;;
58756;SDS011;44527;47.460;19.016;2024-02-28T14:46:46;23.50;;;8.18;;
58756;SDS011;44527;47.460;19.016;2024-02-28T14:49:49;18.73;;;7.85;;
58756;SDS011;44527;47.460;19.016;2024-02-28T14:52:52;15.95;;;7.43;;
58756;SDS011;44527;47.460;19.016;2024-02-28T14:55:54;21.75;;;8.10;;
58756;SDS011;44527;47.460;19.016;2024-02-28T14:58:57;30.52;;;7.90;;
58756;SDS011;44527;47.460;19.016;2024-02-28T15:02:00;25.02;;;7.80;;
58756;SDS011;44527;47.460;19.016;2024-02-28T15:05:03;16.62;;;7.62;;
58756;SDS011;44527;47.460;19.016;2024-02-28T15:08:10;20.15;;;7.65;;
58756;SDS011;44527;47.460;19.016;2024-02-28T15:11:13;16.83;;;7.30;;
58756;SDS011;44527;47.460;19.016;2024-02-28T15:14:15;15.90;;;7.43;;
58756;SDS011;44527;47.460;19.016;2024-02-28T15:17:17;23.15;;;8.32;;
58756;SDS011;44527;47.460;19.016;2024-02-28T15:20:20;21.83;;;7.72;;
58756;SDS011;44527;47.460;19.016;2024-02-28T15:23:24;18.15;;;7.97;;
58756;SDS011;44527;47.460;19.016;2024-02-28T15:26:29;22.60;;;8.23;;
58756;SDS011;44527;47.460;19.016;2024-02-28T15:29:43;19.87;;;7.47;;
58756;SDS011;44527;47.460;19.016;2024-02-28T15:32:46;34.25;;;8.60;;
58756;SDS011;44527;47.460;19.016;2024-02-28T15:35:48;20.12;;;8.65;;
58756;SDS011;44527;47.460;19.016;2024-02-28T15:38:50;23.77;;;9.77;;
58756;SDS011;44527;47.460;19.016;2024-02-28T15:41:53;27.95;;;9.30;;
58756;SDS011;44527;47.460;19.016;2024-02-28T15:44:55;22.65;;;8.95;;
58756;SDS011;44527;47.460;19.016;2024-02-28T15:47:58;22.00;;;10.13;;
58756;SDS011;44527;47.460;19.016;2024-02-28T15:51:00;20.15;;;8.90;;
58756;SDS011;44527;47.460;19.016;2024-02-28T15:54:03;28.30;;;10.18;;
58756;SDS011;44527;47.460;19.016;2024-02-28T15:57:05;23.85;;;10.00;;
58756;SDS011;44527;47.460;19.016;2024-02-28T16:00:08;24.12;;;9.38;;
58756;SDS011;44527;47.460;19.016;2024-02-28T16:03:12;24.05;;;9.20;;
58756;SDS011;44527;47.460;19.016;2024-02-28T16:06:15;22.67;;;8.80;;
58756;SDS011;44527;47.460;19.016;2024-02-28T16:09:17;18.95;;;9.60;;
58756;SDS011;44527;47.460;19.016;2024-02-28T16:12:20;22.90;;;9.68;;
58756;SDS011;44527;47.460;19.016;2024-02-28T16:15:22;24.02;;;9.82;;
58756;SDS011;44527;47.460;19.016;2024-02-28T16:18:25;20.02;;;9.40;;
58756;SDS011;44527;47.460;19.016;2024-02-28T16:21:27;26.25;;;10.23;;
58756;SDS011;44527;47.460;19.016;2024-02-28T16:24:30;36.45;;;10.65;;
58756;SDS011;44527;47.460;19.016;2024-02-28T16:27:32;20.45;;;9.18;;
58756;SDS011;44527;47.460;19.016;2024-02-28T16:30:35;35.05;;;9.18;;
58756;SDS011;44527;47.460;19.016;2024-02-28T16:33:37;31.20;;;10.32;;
58756;SDS011;44527;47.460;19.016;2024-02-28T16:36:43;27.30;;;10.63;;
58756;SDS011;44527;47.460;19.016;2024-02-28T16:39:45;20.92;;;10.52;;
58756;SDS011;44527;47.460;19.016;2024-02-28T16:42:48;20.62;;;10.23;;
58756;SDS011;44527;47.460;19.016;2024-02-28T16:45:50;28.90;;;10.07;;
58756;SDS011;44527;47.460;19.016;2024-02-28T16:48:54;23.83;;;10.23;;
58756;SDS011;44527;47.460;19.016;2024-02-28T16:51:56;27.90;;;10.95;;
58756;SDS011;44527;47.460;19.016;2024-02-28T16:54:59;24.00;;;9.45;;
58756;SDS011;44527;47.460;19.016;2024-02-28T16:58:01;26.55;;;10.68;;
58756;SDS011;44527;47.460;19.016;2024-02-28T17:01:06;30.10;;;12.25;;
58756;SDS011;44527;47.460;19.016;2024-02-28T17:04:09;32.67;;;10.85;;
58756;SDS011;44527;47.460;19.016;2024-02-28T17:07:12;27.77;;;10.88;;
58756;SDS011;44527;47.460;19.016;2024-02-28T17:13:23;28.45;;;9.82;;
58756;SDS011;44527;47.460;19.016;2024-02-28T17:16:25;29.08;;;10.73;;
58756;SDS011;44527;47.460;19.016;2024-02-28T17:19:28;24.23;;;10.38;;
58756;SDS011;44527;47.460;19.016;2024-02-28T17:22:30;28.38;;;10.23;;
58756;SDS011;44527;47.460;19.016;2024-02-28T17:25:35;25.48;;;10.00;;
58756;SDS011;44527;47.460;19.016;2024-02-28T17:28:38;22.90;;;10.63;;
58756;SDS011;44527;47.460;19.016;2024-02-28T17:31:40;32.40;;;11.68;;
58756;SDS011;44527;47.460;19.016;2024-02-28T17:34:43;32.05;;;11.43;;
58756;SDS011;44527;47.460;19.016;2024-02-28T17:37:52;25.75;;;10.50;;
58756;SDS011;44527;47.460;19.016;2024-02-28T17:40:55;25.77;;;11.43;;
58756;SDS011;44527;47.460;19.016;2024-02-28T17:43:57;29.65;;;11.38;;